Time;durP1;ratioP1;P1;durP2;ratioP2;P2;SDS_P1;SDS_P2;PMS_P1;PMS_P2;Temp;Humidity;BMP_temperature;BMP_pressure;BME280_temperature;BME280_humidity;BME280_pressure;Samples;Min_cycle;Max_cycle;Signal;HPM_P1;HPM_P2
2023/12/27 00:00:35;;;;;;;1.02;0.98;;;;;;;5.62;100.00;102206.34;5058433;27;100782;-28
2023/12/27 00:03:00;;;;;;;4.20;1.52;;;;;;;5.62;100.00;102200.97;5076938;27;98915;-28
2023/12/27 00:05:25;;;;;;;2.42;1.10;;;;;;;5.66;100.00;102194.63;5077066;27;96686;-29
2023/12/27 00:07:51;;;;;;;2.65;1.92;;;;;;;5.64;100.00;102193.78;5077232;27;96842;-28
2023/12/27 00:10:16;;;;;;;6.13;2.47;;;;;;;5.61;100.00;102190.28;5076368;27;97453;-28
2023/12/27 00:12:41;;;;;;;6.38;1.52;;;;;;;5.63;100.00;102199.19;5076800;27;98477;-28
2023/12/27 00:15:07;;;;;;;1.88;1.25;;;;;;;5.58;100.00;102190.31;5058376;27;96548;-28
2023/12/27 00:17:32;;;;;;;1.50;1.40;;;;;;;5.59;100.00;102198.34;5076595;27;96920;-28
2023/12/27 00:19:58;;;;;;;1.85;1.23;;;;;;;5.61;100.00;102201.91;5076738;27;97861;-28
2023/12/27 00:22:23;;;;;;;1.90;1.13;;;;;;;5.63;100.00;102200.09;5076590;27;97314;-27
2023/12/27 00:24:49;;;;;;;1.05;0.95;;;;;;;5.57;100.00;102192.13;5076932;27;96542;-28
2023/12/27 00:27:14;;;;;;;2.47;1.65;;;;;;;5.62;100.00;102205.47;5077334;27;96830;-28
2023/12/27 00:29:39;;;;;;;3.88;1.33;;;;;;;5.62;100.00;102198.28;5076381;27;97923;-28
2023/12/27 00:32:08;;;;;;;1.23;1.13;;;;;;;5.58;100.00;102193.91;5075483;27;101566;-28
2023/12/27 00:34:34;;;;;;;1.23;1.05;;;;;;;5.59;100.00;102194.78;5076085;27;96618;-27
2023/12/27 00:37:00;;;;;;;3.08;1.67;;;;;;;5.64;100.00;102200.97;5057716;27;96966;-27
2023/12/27 00:39:26;;;;;;;2.53;1.33;;;;;;;5.60;100.00;102189.41;5076071;27;99186;-28
2023/12/27 00:41:52;;;;;;;2.78;1.55;;;;;;;5.62;100.00;102186.66;5076061;27;99439;-27
2023/12/27 00:44:17;;;;;;;4.75;1.77;;;;;;;5.62;100.00;102186.66;5057840;27;96727;-28
2023/12/27 00:46:42;;;;;;;1.73;1.50;;;;;;;5.62;100.00;102181.28;5076300;27;96827;-28
2023/12/27 00:49:08;;;;;;;2.13;1.77;;;;;;;5.69;100.00;102193.69;5075880;27;101978;-28
2023/12/27 00:51:33;;;;;;;4.30;1.27;;;;;;;5.62;100.00;102179.47;5076163;27;98573;-28
2023/12/27 00:53:58;;;;;;;1.23;1.13;;;;;;;5.66;100.00;102174.94;5076365;27;96969;-27
2023/12/27 00:56:24;;;;;;;1.83;1.65;;;;;;;5.66;100.00;102177.63;5075706;27;96832;-27
2023/12/27 00:58:50;;;;;;;1.35;1.20;;;;;;;5.70;100.00;102179.34;5075728;27;97967;-29
2023/12/27 01:01:16;;;;;;;2.90;1.80;;;;;;;5.70;100.00;102168.59;5075675;27;97835;-29
2023/12/27 01:03:41;;;;;;;3.60;2.10;;;;;;;5.67;100.00;102157.88;5076295;27;96492;-29
2023/12/27 01:06:08;;;;;;;2.38;1.35;;;;;;;5.73;100.00;102164.03;5076082;27;96956;-28
2023/12/27 01:08:34;;;;;;;1.30;1.10;;;;;;;5.75;100.00;102164.88;5057369;27;102201;-28
2023/12/27 01:10:59;;;;;;;4.18;1.80;;;;;;;5.70;100.00;102153.34;5075953;27;97747;-28
2023/12/27 01:13:24;;;;;;;3.05;1.85;;;;;;;5.74;100.00;102165.81;5076313;27;96534;-29
2023/12/27 01:15:50;;;;;;;4.32;1.75;;;;;;;5.74;100.00;102159.53;5076566;27;96737;-27
2023/12/27 01:18:15;;;;;;;2.08;1.20;;;;;;;5.72;100.00;102166.75;5075664;27;97206;-27
2023/12/27 01:20:41;;;;;;;6.72;2.17;;;;;;;5.74;100.00;102172.97;5075447;27;99252;-28
2023/12/27 01:23:06;;;;;;;1.42;1.33;;;;;;;5.75;100.00;102178.34;5075526;27;96424;-28
2023/12/27 01:25:31;;;;;;;1.80;1.20;;;;;;;5.72;100.00;102172.13;5075981;27;96827;-27
2023/12/27 01:27:57;;;;;;;7.10;1.60;;;;;;;5.75;100.00;102177.44;5075611;27;97459;-28
2023/12/27 01:30:22;;;;;;;2.53;1.55;;;;;;;5.70;100.00;102173.97;5075326;27;99179;-28
2023/12/27 01:32:47;;;;;;;2.22;1.35;;;;;;;5.74;100.00;102186.41;5075567;27;96643;-27
2023/12/27 01:35:13;;;;;;;3.17;2.28;;;;;;;5.73;100.00;102181.97;5075562;27;96851;-28
2023/12/27 01:37:39;;;;;;;1.42;0.73;;;;;;;5.73;100.00;102177.47;5075064;27;99351;-28
2023/12/27 01:40:06;;;;;;;4.28;2.00;;;;;;;5.76;100.00;102173.84;5075438;27;99563;-30
2023/12/27 01:42:33;;;;;;;1.63;1.20;;;;;;;5.75;100.00;102172.06;5057104;27;96519;-28
2023/12/27 01:44:59;;;;;;;1.55;1.08;;;;;;;5.79;100.00;102173.75;5057189;27;97108;-28
2023/12/27 01:47:25;;;;;;;13.23;1.60;;;;;;;5.80;100.00;102178.25;5056320;27;101583;-28
2023/12/27 01:49:51;;;;;;;3.42;1.80;;;;;;;5.78;100.00;102172.00;5075524;27;97881;-28
2023/12/27 01:52:16;;;;;;;1.80;1.48;;;;;;;5.84;100.00;102173.66;5075434;27;96864;-29
2023/12/27 01:54:42;;;;;;;2.33;0.98;;;;;;;5.82;100.00;102167.47;5075577;27;96924;-29
2023/12/27 01:57:07;;;;;;;2.20;1.63;;;;;;;5.79;100.00;102164.81;5074852;27;97934;-29
2023/12/27 01:59:34;;;;;;;3.95;1.85;;;;;;;5.80;100.00;102166.59;5075216;27;97880;-28
2023/12/27 02:01:59;;;;;;;1.33;1.02;;;;;;;5.78;100.00;102155.88;5056906;27;96594;-28
2023/12/27 02:04:25;;;;;;;2.17;1.42;;;;;;;5.82;100.00;102154.03;5075525;27;96812;-27
2023/12/27 02:06:51;;;;;;;7.43;1.42;;;;;;;5.82;100.00;102162.09;5074904;27;99274;-28
2023/12/27 02:09:18;;;;;;;2.08;1.58;;;;;;;5.77;100.00;102147.81;5056597;27;99155;-27
2023/12/27 02:11:43;;;;;;;1.92;1.33;;;;;;;5.83;100.00;102156.66;5056251;27;96484;-28
2023/12/27 02:14:08;;;;;;;4.68;1.67;;;;;;;5.82;100.00;102146.84;5075250;27;96796;-28
2023/12/27 02:16:35;;;;;;;1.05;0.93;;;;;;;5.85;100.00;102156.63;5075069;27;97391;-28
2023/12/27 02:19:04;;;;;;;3.92;1.83;;;;;;;5.89;100.00;102158.34;5056304;27;100632;-28
2023/12/27 02:21:30;;;;;;;1.88;1.30;;;;;;;5.91;100.00;102156.50;5056723;27;96555;-27
2023/12/27 02:23:59;;;;;;;1.20;0.93;;;;;;;5.87;100.00;102144.94;5056388;27;96867;-28
2023/12/27 02:26:25;;;;;;;1.00;0.90;;;;;;;5.82;100.00;102156.72;5056138;27;101456;-29
2023/12/27 02:28:50;;;;;;;1.13;1.02;;;;;;;5.82;100.00;102162.97;5074913;27;97775;-27
2023/12/27 02:31:15;;;;;;;0.80;0.73;;;;;;;5.74;100.00;102149.69;5075217;27;96515;-28
2023/12/27 02:33:46;;;;;;;1.70;1.17;;;;;;;5.80;100.00;102154.03;5074895;27;96707;-27
2023/12/27 02:36:11;;;;;;;1.95;1.40;;;;;;;5.78;100.00;102139.75;5055688;27;100932;-28
2023/12/27 02:38:36;;;;;;;1.27;1.02;;;;;;;5.77;100.00;102132.59;5074298;27;98886;-28
2023/12/27 02:41:02;;;;;;;4.68;1.55;;;;;;;5.79;100.00;102125.38;5074672;27;96685;-28
2023/12/27 02:43:28;;;;;;;1.88;1.40;;;;;;;5.83;100.00;102124.41;5074295;27;96843;-28
2023/12/27 02:45:53;;;;;;;2.03;0.90;;;;;;;5.80;100.00;102124.47;5074649;27;97548;-28
2023/12/27 02:48:18;;;;;;;2.17;1.42;;;;;;;5.83;100.00;102129.78;5074733;27;97322;-27
2023/12/27 02:50:44;;;;;;;2.17;1.70;;;;;;;5.86;100.00;102127.00;5074744;27;97207;-28
2023/12/27 02:53:11;;;;;;;0.90;0.75;;;;;;;5.85;100.00;102121.69;5075142;27;96865;-28
2023/12/27 02:55:36;;;;;;;1.20;1.05;;;;;;;5.86;100.00;102110.88;5059305;27;101025;-29
2023/12/27 02:58:02;;;;;;;1.38;0.95;;;;;;;5.89;100.00;102104.56;5055622;27;101408;-28
2023/12/27 03:00:27;;;;;;;4.60;1.48;;;;;;;5.90;100.00;102103.63;5055945;27;96542;-27
2023/12/27 03:02:53;;;;;;;2.67;1.63;;;;;;;5.87;100.00;102101.91;5057503;27;96809;-27
2023/12/27 03:05:19;;;;;;;1.73;1.58;;;;;;;5.87;100.00;102084.91;5056537;27;97339;-28
2023/12/27 03:07:44;;;;;;;2.28;1.75;;;;;;;5.89;100.00;102075.00;5057599;27;97292;-28
2023/12/27 03:10:11;;;;;;;1.58;1.33;;;;;;;5.87;100.00;102082.22;5057990;27;96613;-29
2023/12/27 03:12:36;;;;;;;0.95;0.95;;;;;;;5.82;100.00;102076.06;5057186;27;96856;-27
2023/12/27 03:15:02;;;;;;;2.17;1.35;;;;;;;5.86;100.00;102078.59;5057017;27;99278;-28
2023/12/27 03:17:28;;;;;;;2.20;1.38;;;;;;;5.81;100.00;102060.81;5057317;27;99352;-28
2023/12/27 03:19:53;;;;;;;2.97;1.25;;;;;;;5.83;100.00;102064.38;5057490;27;96536;-28
2023/12/27 03:22:18;;;;;;;1.40;1.00;;;;;;;5.75;100.00;102051.09;5057371;27;96512;-28
2023/12/27 03:24:43;;;;;;;0.88;0.80;;;;;;;5.76;100.00;102047.47;5056217;27;99869;-28
2023/12/27 03:27:10;;;;;;;2.13;1.58;;;;;;;5.79;100.00;102054.59;5056867;27;97906;-27
2023/12/27 03:29:35;;;;;;;1.60;0.77;;;;;;;5.81;100.00;102052.75;5055881;27;96592;-27
2023/12/27 03:32:01;;;;;;;2.38;1.38;;;;;;;5.74;100.00;102035.88;5057074;27;96894;-28
2023/12/27 03:34:26;;;;;;;1.33;1.20;;;;;;;5.73;100.00;102037.69;5056924;27;97752;-28
2023/12/27 03:36:51;;;;;;;1.65;1.30;;;;;;;5.76;100.00;102039.41;5057022;27;97287;-28
2023/12/27 03:39:16;;;;;;;1.48;0.82;;;;;;;5.75;100.00;102051.09;5057068;27;96475;-28
2023/12/27 03:41:42;;;;;;;1.75;1.40;;;;;;;5.70;100.00;102024.31;5057007;27;96809;-29
2023/12/27 03:44:07;;;;;;;1.98;1.35;;;;;;;5.71;100.00;102012.63;5056631;27;101929;-29
2023/12/27 03:46:32;;;;;;;2.30;1.75;;;;;;;5.81;100.00;102010.63;5056662;27;99148;-27
2023/12/27 03:48:58;;;;;;;2.33;0.82;;;;;;;5.87;100.00;102017.69;5056475;27;96558;-27
2023/12/27 03:51:23;;;;;;;1.83;1.48;;;;;;;5.82;100.00;102009.72;5056780;27;96901;-28
2023/12/27 03:53:49;;;;;;;3.13;1.88;;;;;;;5.80;100.00;102002.59;5056683;27;97528;-27
2023/12/27 03:56:14;;;;;;;1.15;1.08;;;;;;;5.84;100.00;101997.13;5054417;27;101040;-28
2023/12/27 03:58:43;;;;;;;3.25;1.23;;;;;;;5.91;100.00;101979.94;5056830;27;96622;-27
2023/12/27 04:01:09;;;;;;;1.35;1.08;;;;;;;5.93;100.00;101971.81;5056878;27;96783;-29
2023/12/27 04:03:34;;;;;;;1.98;1.58;;;;;;;6.02;100.00;101971.63;5056318;27;98017;-28
2023/12/27 04:05:59;;;;;;;1.70;1.23;;;;;;;6.01;100.00;101959.09;5055616;27;97836;-28
2023/12/27 04:08:25;;;;;;;2.33;1.67;;;;;;;6.04;100.00;101968.91;5056835;27;96755;-28
2023/12/27 04:10:50;;;;;;;2.05;1.20;;;;;;;6.02;100.00;101963.53;5056747;27;96894;-28
2023/12/27 04:13:15;;;;;;;1.42;1.33;;;;;;;6.12;100.00;101983.03;5055794;27;97917;-29
2023/12/27 04:15:41;;;;;;;1.25;1.15;;;;;;;6.11;100.00;101974.09;5056295;27;101534;-28
2023/12/27 04:18:07;;;;;;;2.05;1.17;;;;;;;6.11;100.00;101960.63;5056738;27;96439;-28
2023/12/27 04:20:32;;;;;;;2.45;1.48;;;;;;;6.11;100.00;101957.06;5055017;27;96870;-27
2023/12/27 04:22:58;;;;;;;1.13;1.02;;;;;;;6.10;100.00;101963.34;5055930;27;99434;-28
2023/12/27 04:25:23;;;;;;;1.27;1.17;;;;;;;6.10;100.00;101949.91;5056192;27;97324;-28
2023/12/27 04:27:48;;;;;;;1.95;0.90;;;;;;;6.13;100.00;101961.47;5056187;27;96479;-28
2023/12/27 04:30:14;;;;;;;3.20;0.88;;;;;;;6.09;100.00;101951.72;5056777;27;96840;-28
2023/12/27 04:32:39;;;;;;;1.25;1.15;;;;;;;6.05;100.00;101957.22;5056033;27;98127;-28
2023/12/27 04:35:05;;;;;;;4.53;1.50;;;;;;;6.05;100.00;101946.44;5055967;27;97923;-28
2023/12/27 04:37:31;;;;;;;1.73;1.27;;;;;;;6.12;100.00;101951.63;5055228;27;96704;-29
2023/12/27 04:39:56;;;;;;;0.60;0.50;;;;;;;6.08;100.00;101944.56;5056014;27;96687;-28
2023/12/27 04:42:21;;;;;;;1.67;1.38;;;;;;;6.14;100.00;101952.47;5055840;27;98284;-28
2023/12/27 04:44:47;;;;;;;1.95;0.93;;;;;;;6.13;100.00;101944.47;5055843;27;97814;-27
2023/12/27 04:47:13;;;;;;;1.13;0.73;;;;;;;6.11;100.00;101938.25;5054751;27;96824;-27
2023/12/27 04:49:38;;;;;;;1.38;1.27;;;;;;;6.17;100.00;101948.81;5055879;27;96869;-28
2023/12/27 04:52:04;;;;;;;1.50;0.88;;;;;;;6.10;100.00;101940.06;5055564;27;97419;-28
2023/12/27 04:54:29;;;;;;;1.17;1.00;;;;;;;6.13;100.00;101925.63;5054522;27;100864;-29
2023/12/27 04:56:55;;;;;;;0.85;0.75;;;;;;;6.11;100.00;101920.28;5065649;27;96851;-28
2023/12/27 04:59:21;;;;;;;1.85;1.17;;;;;;;6.09;100.00;101915.88;5076269;27;96616;-27
2023/12/27 05:01:47;;;;;;;0.75;0.75;;;;;;;6.09;100.00;101913.19;5056963;27;100574;-28
2023/12/27 05:04:12;;;;;;;0.82;0.40;;;;;;;6.07;100.00;101912.34;5075991;27;97599;-28
2023/12/27 05:06:37;;;;;;;1.30;0.70;;;;;;;6.09;100.00;101902.41;5076428;27;96565;-27
2023/12/27 05:09:04;;;;;;;1.55;0.90;;;;;;;6.09;100.00;101899.72;5076067;27;96803;-29
2023/12/27 05:11:30;;;;;;;1.67;1.33;;;;;;;6.06;100.00;101891.75;5056979;27;100866;-27
2023/12/27 05:13:55;;;;;;;0.70;0.70;;;;;;;6.08;100.00;101896.16;5057299;27;100880;-29
2023/12/27 05:16:21;;;;;;;2.65;1.58;;;;;;;6.06;100.00;101889.06;5075965;27;96559;-28
2023/12/27 05:18:46;;;;;;;2.50;0.98;;;;;;;6.11;100.00;101888.00;5076165;27;96829;-28
2023/12/27 05:21:12;;;;;;;0.85;0.55;;;;;;;6.07;100.00;101885.44;5075583;27;99528;-28
2023/12/27 05:23:38;;;;;;;1.92;0.95;;;;;;;6.08;100.00;101877.34;5075663;27;97470;-29
2023/12/27 05:26:04;;;;;;;4.68;1.67;;;;;;;6.10;100.00;101883.56;5075415;27;96640;-28
2023/12/27 05:28:30;;;;;;;2.33;0.98;;;;;;;6.13;100.00;101866.47;5057424;27;96874;-28
2023/12/27 05:30:55;;;;;;;2.33;1.05;;;;;;;6.22;100.00;101866.22;5075932;27;97426;-28
2023/12/27 05:33:21;;;;;;;1.48;1.02;;;;;;;6.15;100.00;101861.94;5075365;27;98752;-29
2023/12/27 05:35:46;;;;;;;0.55;0.30;;;;;;;6.13;100.00;101858.38;5075608;27;96560;-28
2023/12/27 05:38:12;;;;;;;4.07;0.77;;;;;;;6.22;100.00;101868.00;5075701;27;96732;-27
2023/12/27 05:40:37;;;;;;;1.75;0.82;;;;;;;6.19;100.00;101852.81;5075384;27;97855;-29
2023/12/27 05:43:03;;;;;;;1.30;1.00;;;;;;;6.25;100.00;101855.38;5075581;27;101227;-28
2023/12/27 05:45:28;;;;;;;0.82;0.82;;;;;;;6.21;100.00;101858.19;5075610;27;96747;-27
2023/12/27 05:47:53;;;;;;;1.27;0.98;;;;;;;6.24;100.00;101852.69;5075723;27;96763;-27
2023/12/27 05:50:19;;;;;;;0.63;0.63;;;;;;;6.17;100.00;101849.28;5074553;27;104584;-29
2023/12/27 05:52:45;;;;;;;3.33;1.17;;;;;;;6.15;100.00;101840.41;5075032;27;99415;-27
2023/12/27 05:55:10;;;;;;;2.70;1.17;;;;;;;6.15;100.00;101860.13;5075297;27;96694;-28
2023/12/27 05:57:36;;;;;;;0.80;0.80;;;;;;;6.07;100.00;101839.72;5074904;27;96827;-28
2023/12/27 06:00:02;;;;;;;1.05;0.60;;;;;;;6.10;100.00;101831.56;5075153;27;96753;-28
2023/12/27 06:02:27;;;;;;;1.08;0.90;;;;;;;6.17;100.00;101841.22;5056676;27;101221;-28
2023/12/27 06:04:55;;;;;;;6.43;0.65;;;;;;;6.12;100.00;101827.03;5075144;27;96646;-28
2023/12/27 06:07:21;;;;;;;1.15;0.93;;;;;;;6.15;100.00;101814.38;5057166;27;97503;-28
2023/12/27 06:09:46;;;;;;;1.77;0.77;;;;;;;6.22;100.00;101824.97;5074904;27;98033;-27
2023/12/27 06:12:11;;;;;;;0.65;0.60;;;;;;;6.25;100.00;101822.19;5074916;27;102727;-27
2023/12/27 06:14:38;;;;;;;1.27;1.02;;;;;;;6.32;100.00;101816.59;5074817;27;96554;-29
2023/12/27 06:17:04;;;;;;;1.33;0.77;;;;;;;6.36;100.00;101818.28;5056857;27;96900;-28
2023/12/27 06:19:29;;;;;;;1.35;0.63;;;;;;;6.38;100.00;101811.03;5074963;27;97711;-28
2023/12/27 06:21:54;;;;;;;1.02;0.63;;;;;;;6.09;100.00;101794.84;5074741;27;99122;-28
2023/12/27 06:24:20;;;;;;;0.30;0.28;;;;;;;5.90;100.00;101794.41;5074828;27;96700;-27
2023/12/27 06:26:45;;;;;;;1.88;0.63;;;;;;;5.89;100.00;101787.28;5075289;27;96805;-28
2023/12/27 06:29:11;;;;;;;1.15;0.80;;;;;;;5.88;100.00;101781.00;5076106;27;97463;-28
2023/12/27 06:31:36;;;;;;;0.30;0.28;;;;;;;5.88;100.00;101761.31;5078798;27;97801;-28
2023/12/27 06:34:01;;;;;;;0.55;0.55;;;;;;;5.91;100.00;101759.44;5078583;27;96734;-28
2023/12/27 06:36:27;;;;;;;1.48;0.80;;;;;;;5.93;100.00;101762.97;5078205;27;96537;-28
2023/12/27 06:38:52;;;;;;;1.50;1.10;;;;;;;5.95;100.00;101761.13;5077322;27;100030;-28
2023/12/27 06:41:18;;;;;;;0.95;0.70;;;;;;;5.93;100.00;101752.22;5077920;27;99530;-27
2023/12/27 06:43:43;;;;;;;0.45;0.22;;;;;;;5.99;100.00;101758.38;5078384;27;96553;-28
2023/12/27 06:46:09;;;;;;;0.55;0.55;;;;;;;5.94;100.00;101743.25;5078428;27;96862;-27
2023/12/27 06:48:35;;;;;;;1.17;0.93;;;;;;;6.02;100.00;101744.84;5059672;27;100967;-28
2023/12/27 06:51:03;;;;;;;1.05;0.95;;;;;;;6.08;100.00;101750.94;5078028;27;97794;-27
2023/12/27 06:53:28;;;;;;;1.42;0.80;;;;;;;6.11;100.00;101749.97;5078021;27;96687;-28
2023/12/27 06:55:54;;;;;;;0.70;0.60;;;;;;;6.06;100.00;101746.53;5059641;27;96903;-28
2023/12/27 06:58:19;;;;;;;3.65;0.80;;;;;;;6.04;100.00;101748.38;5078191;27;97547;-28
2023/12/27 07:00:45;;;;;;;0.90;0.55;;;;;;;6.05;100.00;101740.22;5077973;27;97932;-28
2023/12/27 07:03:11;;;;;;;0.82;0.57;;;;;;;6.16;100.00;101748.00;5077387;27;96641;-28
2023/12/27 07:05:37;;;;;;;0.98;0.80;;;;;;;6.12;100.00;101736.44;5077970;27;96820;-28
2023/12/27 07:08:02;;;;;;;2.42;0.80;;;;;;;6.18;100.00;101747.97;5077382;27;99311;-29
2023/12/27 07:10:28;;;;;;;2.65;1.05;;;;;;;6.21;100.00;101740.69;5077864;27;97340;-28
2023/12/27 07:12:53;;;;;;;4.47;2.00;;;;;;;6.21;100.00;101731.75;5077929;27;96704;-28
2023/12/27 07:15:18;;;;;;;1.38;1.00;;;;;;;6.27;100.00;101740.53;5077799;27;96779;-27
2023/12/27 07:17:43;;;;;;;1.30;0.90;;;;;;;6.30;100.00;101729.66;5077509;27;103441;-28
2023/12/27 07:20:10;;;;;;;1.63;1.30;;;;;;;6.29;100.00;101725.22;5078009;27;99808;-27
2023/12/27 07:22:36;;;;;;;1.30;1.15;;;;;;;6.32;100.00;101733.19;5059056;27;96685;-27
2023/12/27 07:25:01;;;;;;;1.38;1.05;;;;;;;6.29;100.00;101713.56;5077556;27;96797;-27
2023/12/27 07:27:26;;;;;;;1.10;0.82;;;;;;;6.37;100.00;101730.38;5077516;27;96792;-27
2023/12/27 07:29:52;;;;;;;0.98;0.60;;;;;;;6.30;100.00;101721.59;5077527;27;97795;-27
2023/12/27 07:32:17;;;;;;;1.08;0.68;;;;;;;6.31;100.00;101709.00;5077843;27;96535;-29
2023/12/27 07:34:42;;;;;;;1.25;0.77;;;;;;;6.35;100.00;101706.19;5077471;27;96819;-28
2023/12/27 07:37:08;;;;;;;0.80;0.55;;;;;;;6.34;100.00;101711.59;5076850;27;99291;-28
2023/12/27 07:39:34;;;;;;;0.70;0.63;;;;;;;6.33;100.00;101716.09;5077006;27;99342;-28
2023/12/27 07:41:59;;;;;;;0.50;0.50;;;;;;;6.31;100.00;101712.56;5077387;27;96500;-27
2023/12/27 07:44:26;;;;;;;1.65;0.75;;;;;;;6.34;100.00;101717.88;5077599;27;96836;-27
2023/12/27 07:46:52;;;;;;;1.83;0.98;;;;;;;6.35;100.00;101710.69;5076910;27;99443;-28
2023/12/27 07:49:18;;;;;;;3.22;0.60;;;;;;;6.43;100.00;101718.53;5077126;27;98333;-28
2023/12/27 07:51:43;;;;;;;1.15;0.77;;;;;;;6.45;100.00;101701.41;5076375;27;96664;-27
2023/12/27 07:54:09;;;;;;;0.60;0.50;;;;;;;6.48;100.00;101697.72;5077313;27;96775;-29
2023/12/27 07:56:35;;;;;;;0.32;0.32;;;;;;;6.52;100.00;101697.59;5076445;27;100101;-28
2023/12/27 07:59:00;;;;;;;0.68;0.57;;;;;;;6.51;100.00;101685.06;5058398;27;100870;-28
2023/12/27 08:01:30;;;;;;;1.00;0.75;;;;;;;6.61;100.00;101696.44;5077413;27;96611;-29
2023/12/27 08:03:55;;;;;;;0.60;0.60;;;;;;;6.63;100.00;101680.25;5058724;27;96811;-27
2023/12/27 08:06:21;;;;;;;0.80;0.70;;;;;;;6.68;100.00;101689.94;5076318;27;98865;-28
2023/12/27 08:08:46;;;;;;;0.95;0.82;;;;;;;6.70;100.00;101680.00;5077043;27;99152;-28
2023/12/27 08:11:12;;;;;;;1.27;0.82;;;;;;;6.67;100.00;101665.72;5076858;27;96461;-28
2023/12/27 08:13:38;;;;;;;0.82;0.77;;;;;;;6.77;100.00;101665.41;5058463;27;96862;-29
2023/12/27 08:16:03;;;;;;;1.58;0.90;;;;;;;6.78;100.00;101655.50;5076422;27;97953;-27
2023/12/27 08:18:29;;;;;;;1.13;0.98;;;;;;;6.87;100.00;101646.25;5076455;27;99622;-27
2023/12/27 08:20:55;;;;;;;0.60;0.60;;;;;;;6.87;100.00;101649.81;5076863;27;96643;-28
2023/12/27 08:23:20;;;;;;;1.02;0.77;;;;;;;6.87;100.00;101638.19;5058285;27;96915;-28
2023/12/27 08:25:45;;;;;;;0.35;0.35;;;;;;;6.93;100.00;101632.56;5076296;27;99664;-29
2023/12/27 08:28:11;;;;;;;0.70;0.70;;;;;;;6.99;100.00;101646.72;5076569;27;97810;-30
2023/12/27 08:30:37;;;;;;;1.05;0.93;;;;;;;7.01;100.00;101644.84;5076927;27;96511;-28
2023/12/27 08:33:06;;;;;;;0.95;0.90;;;;;;;7.08;100.00;101642.84;5041867;27;96965;-27
2023/12/27 08:35:35;;;;;;;1.75;1.08;;;;;;;7.12;100.00;101635.50;5057569;27;100960;-27
2023/12/27 08:38:00;;;;;;;0.52;0.52;;;;;;;7.08;100.00;101613.19;5057632;27;101105;-28
2023/12/27 08:40:26;;;;;;;1.45;1.20;;;;;;;7.16;100.00;101629.97;5076036;27;96518;-27
2023/12/27 08:42:51;;;;;;;2.75;1.67;;;;;;;7.36;100.00;101639.16;5076714;27;96909;-27
2023/12/27 08:45:16;;;;;;;1.27;1.17;;;;;;;7.23;100.00;101617.16;5058063;27;98043;-28
2023/12/27 08:47:43;;;;;;;2.17;1.45;;;;;;;7.14;100.00;101610.28;5076041;27;99170;-27
2023/12/27 08:50:09;;;;;;;2.53;1.52;;;;;;;7.19;100.00;101607.41;5057921;27;96747;-28
2023/12/27 08:52:34;;;;;;;1.25;1.08;;;;;;;7.19;100.00;101610.13;5075818;27;97300;-27
2023/12/27 08:55:00;;;;;;;4.47;2.28;;;;;;;7.25;100.00;101609.03;5076233;27;97926;-28
2023/12/27 08:57:27;;;;;;;1.75;1.38;;;;;;;7.31;100.00;101603.41;5057458;27;100721;-28
2023/12/27 08:59:52;;;;;;;1.65;1.25;;;;;;;7.35;100.00;101591.59;5076276;27;96813;-27
2023/12/27 09:02:17;;;;;;;1.85;1.38;;;;;;;7.40;100.00;101593.19;5075825;27;96882;-28
2023/12/27 09:04:42;;;;;;;1.38;1.27;;;;;;;7.44;100.00;101594.84;5075078;27;97926;-27
2023/12/27 09:07:08;;;;;;;2.15;1.42;;;;;;;7.50;100.00;101592.84;5075625;27;99057;-28
2023/12/27 09:09:33;;;;;;;2.72;1.90;;;;;;;7.59;100.00;101603.28;5076361;27;96605;-28
2023/12/27 09:11:59;;;;;;;2.15;1.67;;;;;;;7.57;100.00;101580.91;5076154;27;96787;-28
2023/12/27 09:14:25;;;;;;;1.77;1.33;;;;;;;7.87;100.00;101595.06;5057082;27;101343;-28
2023/12/27 09:16:50;;;;;;;2.70;1.77;;;;;;;7.71;100.00;101596.56;5057163;27;101408;-28
2023/12/27 09:19:16;;;;;;;3.35;1.83;;;;;;;7.76;100.00;101587.34;5075577;27;97512;-27
2023/12/27 09:21:42;;;;;;;2.05;1.67;;;;;;;7.79;100.00;101606.09;5076260;27;96489;-27
2023/12/27 09:24:08;;;;;;;2.35;1.63;;;;;;;7.81;100.00;101606.94;5057151;27;101428;-28
2023/12/27 09:26:33;;;;;;;2.17;1.30;;;;;;;7.82;100.00;101605.13;5075594;27;97903;-29
2023/12/27 09:28:58;;;;;;;1.33;1.08;;;;;;;7.85;100.00;101596.94;5075474;27;96650;-27
2023/12/27 09:31:29;;;;;;;1.42;1.02;;;;;;;7.88;100.00;101580.63;5075577;27;96867;-28
2023/12/27 09:33:54;;;;;;;4.90;1.48;;;;;;;7.94;100.00;101577.69;5056940;27;100933;-29
2023/12/27 09:36:20;;;;;;;3.65;1.85;;;;;;;7.94;100.00;101575.00;5075509;27;97095;-28
2023/12/27 09:38:46;;;;;;;2.08;1.52;;;;;;;7.89;100.00;101563.50;5075737;27;96837;-28
2023/12/27 09:41:11;;;;;;;1.05;0.75;;;;;;;7.93;100.00;101561.56;5075859;27;96759;-27
2023/12/27 09:43:38;;;;;;;2.65;1.08;;;;;;;7.92;100.00;101560.69;5075411;27;97453;-27
2023/12/27 09:46:06;;;;;;;2.65;1.42;;;;;;;7.95;100.00;101565.06;5057287;27;101101;-28
2023/12/27 09:48:32;;;;;;;2.47;0.95;;;;;;;7.98;100.00;101555.03;5056941;27;96766;-28
2023/12/27 09:50:58;;;;;;;1.92;1.38;;;;;;;8.03;100.00;101550.34;5056723;27;96844;-28
2023/12/27 09:53:24;;;;;;;0.88;0.70;;;;;;;8.04;100.00;101556.63;5074788;27;98025;-28
2023/12/27 09:55:51;;;;;;;2.92;1.58;;;;;;;8.03;100.00;101552.16;5074751;27;97969;-28
2023/12/27 09:58:17;;;;;;;1.40;1.15;;;;;;;8.12;100.00;101562.59;5057091;27;96672;-28
2023/12/27 10:00:45;;;;;;;2.25;1.25;;;;;;;8.13;100.00;101561.66;5075339;27;96864;-28
2023/12/27 10:03:14;;;;;;;1.08;0.90;;;;;;;8.15;100.00;101569.66;5056463;27;101106;-28
2023/12/27 10:05:54;;;;;;;1.15;0.98;;;;;;;8.21;100.00;101570.31;5060201;27;101122;-28
2023/12/27 10:08:19;;;;;;;0.68;0.63;;;;;;;8.21;100.00;101550.56;5060511;27;96752;-29
2023/12/27 10:10:47;;;;;;;1.90;1.15;;;;;;;8.21;100.00;101543.31;5079679;27;96749;-28
2023/12/27 10:13:13;;;;;;;5.28;1.35;;;;;;;8.30;100.00;101547.47;5060122;27;100740;-28
2023/12/27 10:15:38;;;;;;;1.02;0.93;;;;;;;8.28;100.00;101535.88;5078390;27;97755;-27
2023/12/27 10:18:04;;;;;;;1.00;0.77;;;;;;;8.36;100.00;101531.00;5078650;27;96636;-28
2023/12/27 10:20:31;;;;;;;2.47;1.50;;;;;;;8.40;100.00;101530.00;5078863;27;96813;-28
2023/12/27 10:22:58;;;;;;;2.08;1.33;;;;;;;8.39;100.00;101519.22;5078568;27;98124;-28
2023/12/27 10:25:26;;;;;;;1.77;1.20;;;;;;;8.45;100.00;101529.81;5059824;27;101503;-27
2023/12/27 10:27:51;;;;;;;1.02;0.75;;;;;;;8.43;100.00;101518.19;5060242;27;96603;-28
2023/12/27 10:30:18;;;;;;;1.77;1.20;;;;;;;8.43;100.00;101507.38;5078565;27;97798;-29
2023/12/27 10:32:58;;;;;;;1.20;0.80;;;;;;;8.48;100.00;101527.84;5078214;27;99337;-28
2023/12/27 10:35:23;;;;;;;1.23;0.90;;;;;;;8.49;100.00;101509.84;5078885;27;98075;-28
2023/12/27 10:37:58;;;;;;;1.35;1.05;;;;;;;8.50;100.00;101509.75;5078681;27;96822;-27
2023/12/27 10:40:24;;;;;;;1.40;1.08;;;;;;;8.56;100.00;101496.97;5059926;27;97754;-28
2023/12/27 10:42:51;;;;;;;1.27;1.17;;;;;;;8.53;100.00;101488.97;5077390;27;99351;-28
2023/12/27 10:45:17;;;;;;;1.42;0.82;;;;;;;8.57;100.00;101494.19;5059538;27;101312;-28
2023/12/27 10:47:47;;;;;;;1.42;1.08;;;;;;;8.60;100.00;101501.25;5078602;27;96566;-28
2023/12/27 10:50:16;;;;;;;1.70;1.20;;;;;;;8.61;100.00;101497.63;5078219;27;96787;-28
2023/12/27 10:52:43;;;;;;;1.08;0.82;;;;;;;8.73;100.00;101509.75;5058963;27;101255;-28
2023/12/27 10:55:15;;;;;;;0.60;0.52;;;;;;;8.74;100.00;101509.66;5059311;27;100864;-28
2023/12/27 10:57:42;;;;;;;0.88;0.65;;;;;;;8.74;100.00;101500.69;5059529;27;96905;-27
2023/12/27 11:00:08;;;;;;;1.23;0.95;;;;;;;8.75;100.00;101478.09;5059963;27;96749;-28
2023/12/27 11:02:36;;;;;;;1.42;0.90;;;;;;;8.77;100.00;101478.94;5059453;27;100860;-29
2023/12/27 11:05:03;;;;;;;1.35;0.82;;;;;;;8.76;100.00;101469.94;5077563;27;99145;-28
2023/12/27 11:07:32;;;;;;;0.57;0.40;;;;;;;8.82;100.00;101464.28;5058814;27;96594;-28
2023/12/27 11:10:01;;;;;;;0.63;0.63;;;;;;;8.80;100.00;101452.66;5058036;27;96796;-29
2023/12/27 11:12:28;;;;;;;1.60;1.10;;;;;;;8.83;100.00;101452.53;5075773;27;97393;-31
2023/12/27 11:14:58;;;;;;;1.10;0.90;;;;;;;8.82;100.00;101456.19;5055961;27;99209;-28
2023/12/27 11:17:27;;;;;;;1.88;0.75;;;;;;;8.88;100.00;101463.13;5056766;27;96734;-31